Time;durP1;ratioP1;P1;durP2;ratioP2;P2;SDS_P1;SDS_P2;PMS_P1;PMS_P2;Temp;Humidity;BMP_temperature;BMP_pressure;BME280_temperature;BME280_humidity;BME280_pressure;Samples;Min_cycle;Max_cycle;Signal;HPM_P1;HPM_P2
2023/05/13 00:01:49;;;;;;;;;;;;;;;9.59;76.60;101509.22;4970504;28;20425;-89
2023/05/13 00:04:14;;;;;;;;;;;;;;;9.48;76.96;101513.69;4970626;28;20323;-91
2023/05/13 00:06:59;;;;;;;;;;;;;;;9.42;77.35;101513.38;4972805;28;19918;-91
2023/05/13 00:10:08;;;;;;;;;;;;;;;9.45;77.25;101513.94;4979543;28;20001;-90
2023/05/13 00:12:36;;;;;;;;;;;;;;;9.39;77.38;101513.59;4986180;28;19926;-93
2023/05/13 00:15:02;;;;;;;;;;;;;;;9.35;76.88;101513.03;4985554;28;19933;-89
2023/05/13 00:17:28;;;;;;;;;;;;;;;9.44;76.08;101512.25;4966575;28;19911;-88
2023/05/13 00:20:01;;;;;;;;;;;;;;;9.31;75.84;101506.22;4983378;28;19922;-95
2023/05/13 00:22:26;;;;;;;;;;;;;;;9.30;75.49;101508.06;4955660;28;20824;-92
2023/05/13 00:24:52;;;;;;;;;;;;;;;9.25;74.96;101506.78;4972829;28;19930;-91
2023/05/13 00:27:17;;;;;;;;;;;;;;;9.28;74.65;101509.19;4967945;28;20001;-91
2023/05/13 00:29:44;;;;;;;;;;;;;;;9.30;74.25;101505.38;4972122;28;20416;-91
2023/05/13 00:32:15;;;;;;;;;;;;;;;9.17;74.02;101514.63;4973185;28;19922;-91
2023/05/13 00:34:51;;;;;;;;;;;;;;;9.08;73.73;101519.78;4979571;28;19918;-90
2023/05/13 00:37:20;;;;;;;;;;;;;;;9.04;73.40;101520.19;4978850;28;19929;-91
2023/05/13 00:39:47;;;;;;;;;;;;;;;9.07;73.00;101519.91;4973651;28;19918;-91
2023/05/13 00:42:12;;;;;;;;;;;;;;;9.13;72.55;101518.53;4960042;28;19973;-90
2023/05/13 00:44:39;;;;;;;;;;;;;;;9.16;72.22;101523.66;4973384;28;19918;-90
2023/05/13 00:47:05;;;;;;;;;;;;;;;9.15;71.97;101521.94;4971946;28;20017;-88
2023/05/13 00:49:34;;;;;;;;;;;;;;;9.05;72.31;101516.50;4954260;28;19969;-90
2023/05/13 00:52:00;;;;;;;;;;;;;;;8.98;72.78;101518.00;4972584;28;19914;-94
2023/05/13 00:54:26;;;;;;;;;;;;;;;8.96;73.12;101520.81;4983575;28;19937;-90
2023/05/13 00:56:55;;;;;;;;;;;;;;;8.99;73.07;101527.75;4971771;28;19918;-91
2023/05/13 00:59:22;;;;;;;;;;;;;;;8.96;73.57;101518.13;4946364;28;19977;-90
2023/05/13 01:01:58;;;;;;;;;;;;;;;8.83;74.37;101514.78;4934464;29;19930;-90
2023/05/13 01:07:47;;;;;;;;;;;;;;;8.84;74.05;101520.00;4973314;28;19973;-89
2023/05/13 01:13:32;;;;;;;;;;;;;;;8.81;73.90;101514.91;4972928;28;19928;-90
2023/05/13 01:16:03;;;;;;;;;;;;;;;8.84;73.62;101520.00;4955856;28;19924;-90
2023/05/13 01:18:39;;;;;;;;;;;;;;;8.72;74.03;101510.31;4972803;28;20032;-91
2023/05/13 01:21:05;;;;;;;;;;;;;;;8.70;73.93;101522.16;4970911;28;19922;-90
2023/05/13 01:23:31;;;;;;;;;;;;;;;8.71;73.70;101518.47;4958749;28;19944;-90
2023/05/13 01:25:57;;;;;;;;;;;;;;;8.77;73.29;101528.72;4972079;28;19937;-89
2023/05/13 01:28:23;;;;;;;;;;;;;;;8.62;73.68;101526.31;4962074;28;19933;-90
2023/05/13 01:30:50;;;;;;;;;;;;;;;8.54;74.39;101535.97;4969958;28;20019;-90
2023/05/13 01:33:16;;;;;;;;;;;;;;;8.57;74.34;101533.91;4972272;28;19922;-90
2023/05/13 01:35:42;;;;;;;;;;;;;;;8.57;74.67;101533.91;4972935;28;19922;-89
2023/05/13 01:38:09;;;;;;;;;;;;;;;8.59;74.49;101539.13;4955992;28;20306;-90
2023/05/13 01:40:35;;;;;;;;;;;;;;;8.55;74.65;101535.84;4955254;28;20081;-90
2023/05/13 01:43:25;;;;;;;;;;;;;;;8.48;74.60;101533.81;4972444;28;19966;-90
2023/05/13 01:45:52;;;;;;;;;;;;;;;8.44;74.56;101543.91;4972909;28;19918;-89
2023/05/13 01:48:35;;;;;;;;;;;;;;;8.36;74.60;101535.63;4971301;28;19922;-90
2023/05/13 01:51:03;;;;;;;;;;;;;;;8.46;74.00;101531.25;4955081;28;19918;-88
2023/05/13 01:53:30;;;;;;;;;;;;;;;8.45;74.16;101537.56;4970167;28;19926;-89
2023/05/13 01:55:55;;;;;;;;;;;;;;;8.35;74.05;101531.25;4953960;28;19926;-90
2023/05/13 01:58:23;;;;;;;;;;;;;;;8.45;73.88;101529.53;4952168;28;19933;-90
2023/05/13 02:00:49;;;;;;;;;;;;;;;8.38;74.35;101534.53;4967294;28;19930;-91
2023/05/13 02:03:14;;;;;;;;;;;;;;;8.29;74.89;101547.81;4953803;28;19918;-90
2023/05/13 02:05:41;;;;;;;;;;;;;;;8.33;74.93;101554.63;4972822;28;19992;-91
2023/05/13 02:08:26;;;;;;;;;;;;;;;8.25;75.21;101548.06;4964807;28;19918;-92
2023/05/13 02:10:56;;;;;;;;;;;;;;;8.16;75.43;101540.75;4954564;28;19922;-90
2023/05/13 02:13:28;;;;;;;;;;;;;;;8.21;75.37;101540.41;4953943;28;19918;-91
2023/05/13 02:15:55;;;;;;;;;;;;;;;8.23;75.37;101546.47;4969790;28;19933;-90
2023/05/13 02:18:25;;;;;;;;;;;;;;;8.09;76.19;101547.59;4971237;28;20016;-91
2023/05/13 02:20:54;;;;;;;;;;;;;;;8.05;76.38;101543.44;4954708;28;19918;-90
2023/05/13 02:23:29;;;;;;;;;;;;;;;8.00;76.89;101551.84;4971641;28;20429;-91
2023/05/13 02:25:55;;;;;;;;;;;;;;;7.81;77.59;101547.09;4961129;28;19954;-89
2023/05/13 02:28:20;;;;;;;;;;;;;;;7.81;77.77;101552.47;4971006;28;19945;-90
2023/05/13 02:30:48;;;;;;;;;;;;;;;7.69;78.07;101553.44;4970561;28;19969;-91
2023/05/13 02:33:15;;;;;;;;;;;;;;;7.72;77.55;101555.00;4971082;28;20008;-90
2023/05/13 02:35:40;;;;;;;;;;;;;;;7.69;77.46;101557.94;4948140;28;19970;-90
2023/05/13 02:38:08;;;;;;;;;;;;;;;7.72;77.29;101557.69;4970300;28;19930;-90
2023/05/13 02:40:34;;;;;;;;;;;;;;;7.70;77.01;101564.97;4954005;28;19937;-91
2023/05/13 02:42:59;;;;;;;;;;;;;;;7.74;76.83;101566.47;4953911;28;20031;-91
2023/05/13 02:45:26;;;;;;;;;;;;;;;7.72;76.33;101568.41;4953682;28;19990;-91
2023/05/13 02:47:52;;;;;;;;;;;;;;;7.70;75.59;101571.22;4974049;28;19929;-92
2023/05/13 02:50:18;;;;;;;;;;;;;;;7.67;75.28;101571.44;4977166;28;19969;-91
2023/05/13 02:52:44;;;;;;;;;;;;;;;7.78;74.64;101574.13;4984053;28;19911;-93
2023/05/13 02:55:15;;;;;;;;;;;;;;;7.73;74.17;101576.31;4982883;28;20001;-92
2023/05/13 02:57:42;;;;;;;;;;;;;;;7.65;74.47;101568.03;4954744;28;19922;-92
2023/05/13 03:00:08;;;;;;;;;;;;;;;7.68;74.68;101575.84;4981943;28;19926;-90
2023/05/13 03:02:46;;;;;;;;;;;;;;;7.66;74.79;101577.78;4972882;28;19929;-93
2023/05/13 03:05:13;;;;;;;;;;;;;;;7.69;74.61;101572.16;4969260;28;20119;-91
2023/05/13 03:07:38;;;;;;;;;;;;;;;7.72;74.59;101577.28;4952846;28;19918;-90
2023/05/13 03:10:07;;;;;;;;;;;;;;;7.78;74.40;101584.84;4946513;28;20387;-91
2023/05/13 03:12:35;;;;;;;;;;;;;;;7.86;74.13;101578.03;4961806;28;20025;-91
2023/05/13 03:15:01;;;;;;;;;;;;;;;7.93;73.83;101587.28;4968690;28;19918;-91
2023/05/13 03:17:34;;;;;;;;;;;;;;;7.97;73.58;101591.44;4970218;28;20331;-89
2023/05/13 03:20:01;;;;;;;;;;;;;;;7.89;73.87;101591.16;4966313;28;19930;-89
2023/05/13 03:22:26;;;;;;;;;;;;;;;7.87;73.78;101603.84;4961624;28;20338;-89
2023/05/13 03:24:52;;;;;;;;;;;;;;;7.97;73.50;101599.47;4969826;28;19941;-91
2023/05/13 03:27:49;;;;;;;;;;;;;;;7.96;73.38;101603.09;4971330;28;19922;-92
2023/05/13 03:30:18;;;;;;;;;;;;;;;7.98;73.16;101603.81;4953543;28;20462;-92
2023/05/13 03:32:59;;;;;;;;;;;;;;;8.06;72.87;101609.44;4951723;29;19927;-91
2023/05/13 03:35:25;;;;;;;;;;;;;;;8.06;72.82;101604.09;4950515;29;19945;-91
2023/05/13 03:38:24;;;;;;;;;;;;;;;8.14;72.73;101606.16;4958654;28;19926;-91
2023/05/13 03:40:49;;;;;;;;;;;;;;;8.19;72.09;101609.31;4976348;28;20402;-91
2023/05/13 03:46:21;;;;;;;;;;;;;;;8.37;71.39;101617.72;4990086;28;20008;-88
2023/05/13 03:48:48;;;;;;;;;;;;;;;8.30;71.11;101613.81;4962960;28;20032;-89
2023/05/13 03:51:15;;;;;;;;;;;;;;;8.29;70.86;101604.06;4963812;28;19919;-91
2023/05/13 03:53:41;;;;;;;;;;;;;;;8.39;70.11;101608.56;4972958;28;19918;-91
2023/05/13 03:56:10;;;;;;;;;;;;;;;8.54;69.65;101601.13;4957536;28;19941;-90
2023/05/13 03:58:37;;;;;;;;;;;;;;;8.45;69.74;101599.22;4957373;28;19930;-92
2023/05/13 04:01:04;;;;;;;;;;;;;;;8.52;69.24;101605.81;4985020;28;20004;-91
2023/05/13 04:03:30;;;;;;;;;;;;;;;8.48;69.45;101601.66;4976708;28;19914;-92
2023/05/13 04:06:07;;;;;;;;;;;;;;;8.48;69.61;101590.09;4958709;28;20255;-92
2023/05/13 04:08:33;;;;;;;;;;;;;;;8.62;69.09;101596.03;4974059;28;19914;-92
2023/05/13 04:11:00;;;;;;;;;;;;;;;8.61;68.95;101594.31;4973815;28;19918;-92
2023/05/13 04:13:26;;;;;;;;;;;;;;;8.64;69.03;101590.53;4978152;28;19940;-89
2023/05/13 04:16:13;;;;;;;;;;;;;;;8.81;68.57;101594.50;4967303;28;19922;-90
2023/05/13 04:18:39;;;;;;;;;;;;;;;8.92;68.54;101601.66;4955069;29;19933;-89
2023/05/13 04:21:11;;;;;;;;;;;;;;;8.96;68.61;101598.59;4965032;28;19918;-91
2023/05/13 04:23:39;;;;;;;;;;;;;;;9.14;67.68;101598.03;4990535;28;19960;-92
2023/05/13 04:26:04;;;;;;;;;;;;;;;9.33;66.50;101600.03;4937240;29;20311;-91
2023/05/13 04:28:30;;;;;;;;;;;;;;;9.41;66.16;101600.22;4956890;28;19921;-91
2023/05/13 04:30:58;;;;;;;;;;;;;;;9.60;65.74;101599.50;4974165;28;19919;-88
2023/05/13 04:33:44;;;;;;;;;;;;;;;9.73;64.87;101592.09;4974442;28;19922;-91
2023/05/13 04:36:16;;;;;;;;;;;;;;;9.99;63.34;101597.88;4974417;28;20339;-91
2023/05/13 04:38:43;;;;;;;;;;;;;;;10.20;63.17;101597.81;4977298;28;20284;-91
2023/05/13 04:41:12;;;;;;;;;;;;;;;10.40;62.12;101604.16;4977818;28;19992;-91
2023/05/13 04:43:41;;;;;;;;;;;;;;;10.67;61.25;101603.50;4957564;28;19937;-90
2023/05/13 04:46:13;;;;;;;;;;;;;;;10.84;60.48;101603.81;4973040;28;19976;-90
2023/05/13 04:51:41;;;;;;;;;;;;;;;11.33;58.41;101610.06;4979652;28;19925;-92
2023/05/13 04:54:07;;;;;;;;;;;;;;;11.45;57.31;101613.47;4977249;28;19970;-93
2023/05/13 04:56:32;;;;;;;;;;;;;;;11.63;56.12;101625.19;4969170;28;19926;-90
2023/05/13 04:58:59;;;;;;;;;;;;;;;11.79;55.50;101620.06;4974712;28;19989;-90
2023/05/13 05:01:25;;;;;;;;;;;;;;;11.99;55.16;101626.28;4972360;28;20359;-91
2023/05/13 05:03:51;;;;;;;;;;;;;;;12.35;54.50;101623.72;4972165;28;19972;-91
2023/05/13 05:06:17;;;;;;;;;;;;;;;12.52;53.82;101629.34;4973247;28;20375;-91
2023/05/13 05:08:58;;;;;;;;;;;;;;;12.70;53.59;101632.09;4970557;28;19918;-92
2023/05/13 05:11:26;;;;;;;;;;;;;;;12.81;52.75;101623.78;4972101;28;19919;-92
2023/05/13 05:13:53;;;;;;;;;;;;;;;12.93;52.89;101621.72;4982548;28;20075;-91
2023/05/13 05:16:19;;;;;;;;;;;;;;;13.21;52.26;101625.19;4960060;28;19953;-94
2023/05/13 05:18:47;;;;;;;;;;;;;;;13.38;51.44;101623.50;4969923;28;20225;-91
2023/05/13 05:21:13;;;;;;;;;;;;;;;13.44;51.61;101622.91;4988388;28;19925;-92
2023/05/13 05:23:48;;;;;;;;;;;;;;;13.72;50.99;101627.16;4965589;28;20405;-91
2023/05/13 05:26:46;;;;;;;;;;;;;;;13.83;50.12;101619.78;4973361;28;19976;-92
2023/05/13 05:29:11;;;;;;;;;;;;;;;14.03;48.94;101615.03;4964513;28;19918;-91
2023/05/13 05:31:41;;;;;;;;;;;;;;;14.33;49.23;101619.06;4981342;28;20310;-91
2023/05/13 05:34:10;;;;;;;;;;;;;;;14.70;47.56;101626.84;4976584;28;19945;-91
2023/05/13 05:36:35;;;;;;;;;;;;;;;15.15;47.42;101622.03;4984794;28;20406;-93
2023/05/13 05:39:03;;;;;;;;;;;;;;;15.44;46.56;101617.97;4956043;28;19981;-93
2023/05/13 05:41:51;;;;;;;;;;;;;;;15.72;45.92;101630.19;4958827;28;19933;-93
2023/05/13 05:44:24;;;;;;;;;;;;;;;16.20;45.45;101631.09;4978516;28;20339;-94
2023/05/13 05:53:11;;;;;;;;;;;;;;;17.09;42.58;101617.25;4975862;28;19922;-93
2023/05/13 05:56:04;;;;;;;;;;;;;;;17.42;42.89;101620.59;4974053;28;19922;-96
2023/05/13 05:58:33;;;;;;;;;;;;;;;17.75;41.65;101625.75;4975402;28;19929;-88
2023/05/13 06:01:03;;;;;;;;;;;;;;;17.98;43.78;101627.56;4971544;28;19918;-92
2023/05/13 06:03:31;;;;;;;;;;;;;;;18.14;42.18;101627.38;4969831;28;19946;-87
2023/05/13 06:05:59;;;;;;;;;;;;;;;18.37;40.14;101626.44;4953634;28;20382;-89
2023/05/13 06:08:28;;;;;;;;;;;;;;;18.26;39.75;101608.72;4956548;28;19922;-88
2023/05/13 06:10:54;;;;;;;;;;;;;;;18.39;40.18;101629.84;4952277;28;20441;-88
2023/05/13 06:13:20;;;;;;;;;;;;;;;18.39;40.28;101625.22;4954535;28;19926;-90
2023/05/13 06:15:46;;;;;;;;;;;;;;;18.62;39.90;101635.16;4971004;28;19925;-88
2023/05/13 06:18:12;;;;;;;;;;;;;;;18.99;38.55;101634.16;4981879;28;19929;-86
2023/05/13 06:20:37;;;;;;;;;;;;;;;19.35;38.08;101633.25;4967924;28;19922;-87
2023/05/13 06:23:02;;;;;;;;;;;;;;;19.69;38.00;101620.78;4976233;28;19918;-87
2023/05/13 06:25:28;;;;;;;;;;;;;;;19.99;37.38;101627.75;4959369;28;19926;-89
2023/05/13 06:27:53;;;;;;;;;;;;;;;20.19;35.25;101618.81;4971617;28;19918;-88
2023/05/13 06:30:20;;;;;;;;;;;;;;;20.41;34.36;101617.66;4970843;28;19942;-87
2023/05/13 06:32:47;;;;;;;;;;;;;;;20.59;34.76;101627.25;4958751;28;19933;-88
2023/05/13 06:35:14;;;;;;;;;;;;;;;20.72;34.44;101619.09;4955984;28;19949;-88
2023/05/13 06:37:39;;;;;;;;;;;;;;;20.98;34.10;101622.97;4975972;28;20416;-87
2023/05/13 06:40:05;;;;;;;;;;;;;;;21.15;31.81;101616.06;4955576;28;19923;-87
2023/05/13 06:42:30;;;;;;;;;;;;;;;21.55;31.73;101607.91;4961568;28;19918;-87
2023/05/13 06:44:56;;;;;;;;;;;;;;;21.66;31.94;101612.75;4972296;28;20009;-88
2023/05/13 06:47:22;;;;;;;;;;;;;;;21.82;31.47;101613.34;4955336;28;19997;-92
2023/05/13 06:49:47;;;;;;;;;;;;;;;22.05;31.14;101615.63;4973491;28;19985;-88
2023/05/13 06:52:12;;;;;;;;;;;;;;;21.96;27.97;101615.03;4970853;28;19918;-89
2023/05/13 06:54:38;;;;;;;;;;;;;;;22.06;30.39;101628.28;4985636;28;20343;-88
2023/05/13 06:57:04;;;;;;;;;;;;;;;22.27;29.40;101630.78;4986657;28;20390;-88
2023/05/13 06:59:30;;;;;;;;;;;;;;;22.22;29.52;101624.25;4963915;28;19918;-88
2023/05/13 07:01:55;;;;;;;;;;;;;;;22.46;27.95;101629.03;4982694;28;20039;-88
2023/05/13 07:04:20;;;;;;;;;;;;;;;22.58;26.01;101639.31;4958156;28;20354;-89
2023/05/13 07:06:46;;;;;;;;;;;;;;;22.46;25.29;101645.47;4960858;28;20357;-89
2023/05/13 07:09:13;;;;;;;;;;;;;;;22.67;23.97;101640.75;4978113;28;19940;-90
2023/05/13 07:11:39;;;;;;;;;;;;;;;22.53;24.35;101632.59;4970548;28;19921;-90
2023/05/13 07:14:04;;;;;;;;;;;;;;;22.54;24.57;101634.25;4972161;28;19922;-91
2023/05/13 07:16:31;;;;;;;;;;;;;;;22.93;24.19;101635.13;4967224;28;19972;-89
2023/05/13 07:18:57;;;;;;;;;;;;;;;23.22;23.92;101621.91;4973517;28;20021;-87
2023/05/13 07:21:24;;;;;;;;;;;;;;;23.28;23.05;101631.16;4972891;28;20018;-88
2023/05/13 07:23:49;;;;;;;;;;;;;;;23.15;23.49;101632.91;4976464;28;19934;-87
2023/05/13 07:26:15;;;;;;;;;;;;;;;23.12;23.48;101633.38;4971068;28;19922;-88
2023/05/13 07:28:42;;;;;;;;;;;;;;;23.21;23.29;101631.22;4960269;28;19941;-89
2023/05/13 07:31:07;;;;;;;;;;;;;;;23.56;23.16;101626.06;4974230;28;19977;-88
2023/05/13 07:33:35;;;;;;;;;;;;;;;23.28;23.53;101625.69;4971732;28;19930;-88
2023/05/13 07:36:01;;;;;;;;;;;;;;;23.05;23.02;101626.25;4951391;28;20367;-89
2023/05/13 07:38:26;;;;;;;;;;;;;;;23.02;23.47;101626.69;4972836;28;19949;-89
2023/05/13 07:40:52;;;;;;;;;;;;;;;23.14;23.81;101624.94;4978709;28;19985;-89
2023/05/13 07:43:22;;;;;;;;;;;;;;;22.85;23.90;101626.31;4964576;28;19929;-89
2023/05/13 07:45:48;;;;;;;;;;;;;;;22.83;23.73;101622.94;4984508;28;19918;-88
2023/05/13 07:48:16;;;;;;;;;;;;;;;23.13;23.16;101635.06;4973288;28;19976;-88
2023/05/13 07:50:43;;;;;;;;;;;;;;;22.68;23.62;101631.47;4954296;28;20364;-88
2023/05/13 07:53:12;;;;;;;;;;;;;;;23.11;23.40;101630.88;4973155;28;19919;-92
2023/05/13 07:55:38;;;;;;;;;;;;;;;22.80;24.04;101624.22;4974727;28;20371;-88
2023/05/13 07:58:05;;;;;;;;;;;;;;;23.38;24.33;101629.59;4980168;28;19921;-91
2023/05/13 08:00:31;;;;;;;;;;;;;;;22.84;24.21;101621.91;4981143;28;20275;-89
2023/05/13 08:02:56;;;;;;;;;;;;;;;23.33;23.49;101623.09;4988231;28;20020;-88
2023/05/13 08:05:24;;;;;;;;;;;;;;;23.38;22.48;101620.53;4946070;28;19926;-90
2023/05/13 08:07:52;;;;;;;;;;;;;;;22.89;22.12;101622.91;4974736;28;19990;-88
2023/05/13 08:10:17;;;;;;;;;;;;;;;23.76;21.80;101606.72;4974153;28;19914;-88
2023/05/13 08:12:43;;;;;;;;;;;;;;;24.20;21.67;101595.69;4967785;28;19932;-90
2023/05/13 08:15:10;;;;;;;;;;;;;;;24.46;21.48;101589.03;4961541;28;19948;-90
2023/05/13 08:17:36;;;;;;;;;;;;;;;25.06;21.04;101591.81;4974052;28;19981;-92
2023/05/13 08:20:01;;;;;;;;;;;;;;;25.01;21.42;101601.88;4959408;28;19965;-90
2023/05/13 08:22:27;;;;;;;;;;;;;;;24.65;20.82;101592.63;4957769;28;19918;-90
2023/05/13 08:24:52;;;;;;;;;;;;;;;24.23;21.56;101590.59;4975269;28;20359;-90
2023/05/13 08:27:19;;;;;;;;;;;;;;;24.52;21.92;101590.91;4973109;28;20456;-90
2023/05/13 08:29:44;;;;;;;;;;;;;;;24.23;21.98;101593.34;4948904;28;20020;-92
2023/05/13 08:32:10;;;;;;;;;;;;;;;24.38;21.92;101586.63;4973843;28;20001;-92
2023/05/13 08:34:37;;;;;;;;;;;;;;;24.19;21.34;101589.38;4953825;28;19926;-90
2023/05/13 08:37:04;;;;;;;;;;;;;;;24.22;21.31;101597.13;4962769;28;19918;-90
2023/05/13 08:39:29;;;;;;;;;;;;;;;23.88;21.29;101593.09;4974906;28;19922;-90
2023/05/13 08:41:56;;;;;;;;;;;;;;;24.64;20.61;101601.94;4956915;28;20342;-91
2023/05/13 08:44:27;;;;;;;;;;;;;;;24.75;20.98;101601.16;4973645;28;20303;-90
2023/05/13 08:46:56;;;;;;;;;;;;;;;23.97;20.70;101596.38;4988930;28;19961;-91
2023/05/13 08:49:22;;;;;;;;;;;;;;;24.88;21.26;101602.88;4965331;28;19933;-90
2023/05/13 08:51:47;;;;;;;;;;;;;;;25.44;20.22;101596.09;4973332;28;19922;-91
2023/05/13 08:54:12;;;;;;;;;;;;;;;25.16;19.73;101594.00;4975431;28;19941;-92
2023/05/13 08:56:39;;;;;;;;;;;;;;;25.72;20.03;101597.34;4968621;28;19930;-91
2023/05/13 08:59:08;;;;;;;;;;;;;;;26.28;18.90;101597.78;4991505;28;19985;-91
2023/05/13 09:01:35;;;;;;;;;;;;;;;25.73;19.91;101588.00;4965263;28;19934;-91
2023/05/13 09:04:01;;;;;;;;;;;;;;;25.03;20.32;101595.06;4961019;28;19928;-91
2023/05/13 09:06:29;;;;;;;;;;;;;;;25.39;19.81;101598.75;4956871;28;20255;-92
2023/05/13 09:08:56;;;;;;;;;;;;;;;25.23;20.18;101600.25;4959839;28;20027;-91
2023/05/13 09:11:22;;;;;;;;;;;;;;;25.06;20.16;101602.81;4975848;28;20373;-90
2023/05/13 09:13:58;;;;;;;;;;;;;;;24.94;20.83;101599.22;4971811;28;19938;-90
2023/05/13 09:16:25;;;;;;;;;;;;;;;25.17;20.40;101594.81;4974804;28;19918;-91
2023/05/13 09:18:57;;;;;;;;;;;;;;;25.38;19.84;101597.09;4970938;28;19965;-91
2023/05/13 09:21:23;;;;;;;;;;;;;;;25.38;19.90;101610.84;4971575;28;19933;-91
2023/05/13 09:23:50;;;;;;;;;;;;;;;25.59;19.88;101608.56;4967619;28;19929;-90
2023/05/13 09:26:28;;;;;;;;;;;;;;;25.89;19.73;101603.84;4973670;28;19918;-91
2023/05/13 09:29:12;;;;;;;;;;;;;;;25.59;20.03;101597.56;4961250;28;19929;-91
2023/05/13 09:31:38;;;;;;;;;;;;;;;25.43;19.97;101605.47;4965691;28;20012;-91
2023/05/13 09:34:04;;;;;;;;;;;;;;;25.61;20.57;101611.94;4973938;28;19922;-91
2023/05/13 09:36:31;;;;;;;;;;;;;;;25.19;20.22;101606.47;4973966;28;19941;-92
2023/05/13 09:38:57;;;;;;;;;;;;;;;24.67;20.74;101604.22;4952361;28;20363;-92
2023/05/13 09:41:24;;;;;;;;;;;;;;;23.90;21.39;101595.59;4975366;28;20045;-90
2023/05/13 09:43:49;;;;;;;;;;;;;;;24.42;21.18;101590.59;4954237;28;19918;-90
2023/05/13 09:46:20;;;;;;;;;;;;;;;24.74;21.14;101601.41;4975370;28;20413;-92
2023/05/13 09:48:45;;;;;;;;;;;;;;;24.79;21.20;101607.84;4973897;28;20817;-91
2023/05/13 09:51:11;;;;;;;;;;;;;;;24.72;20.32;101609.03;4958979;28;20021;-91
2023/05/13 09:53:36;;;;;;;;;;;;;;;24.18;20.16;101614.31;4970146;28;19929;-91
2023/05/13 09:56:02;;;;;;;;;;;;;;;24.18;20.55;101608.81;4966855;28;19934;-92
2023/05/13 09:58:29;;;;;;;;;;;;;;;24.06;21.01;101602.41;4976564;28;19925;-93
2023/05/13 10:00:55;;;;;;;;;;;;;;;23.60;20.61;101612.75;4969322;28;20366;-92
2023/05/13 10:03:21;;;;;;;;;;;;;;;22.96;21.57;101615.50;4971500;28;20008;-91
2023/05/13 10:05:47;;;;;;;;;;;;;;;22.70;21.76;101615.66;4967016;28;20337;-92
2023/05/13 10:08:14;;;;;;;;;;;;;;;22.13;21.75;101602.56;4971458;28;19933;-92
2023/05/13 10:10:40;;;;;;;;;;;;;;;22.39;21.49;101600.81;4972860;28;19925;-92
2023/05/13 10:13:16;;;;;;;;;;;;;;;22.05;21.93;101590.97;4958506;28;19923;-91
2023/05/13 10:15:47;;;;;;;;;;;;;;;22.00;22.30;101591.63;4977410;28;19941;-92
2023/05/13 10:18:12;;;;;;;;;;;;;;;22.10;22.45;101586.56;4949949;28;19918;-91
2023/05/13 10:20:37;;;;;;;;;;;;;;;22.47;22.31;101591.50;4981853;28;19926;-91
2023/05/13 10:23:04;;;;;;;;;;;;;;;23.12;22.20;101594.13;4976992;28;19906;-87
2023/05/13 10:25:29;;;;;;;;;;;;;;;22.67;22.22;101594.16;4971503;28;19950;-86
2023/05/13 10:27:55;;;;;;;;;;;;;;;22.46;22.17;101590.69;4978313;28;19930;-87
2023/05/13 10:30:25;;;;;;;;;;;;;;;22.31;23.20;101587.34;4981483;28;19925;-87
2023/05/13 10:32:50;;;;;;;;;;;;;;;22.89;22.55;101590.03;4975574;28;19934;-90
2023/05/13 10:35:17;;;;;;;;;;;;;;;24.42;21.33;101576.84;4956959;28;20302;-90
2023/05/13 10:37:59;;;;;;;;;;;;;;;25.69;20.10;101581.28;4960085;28;19948;-88
2023/05/13 10:40:30;;;;;;;;;;;;;;;26.24;19.57;101580.88;4967500;28;19922;-89
2023/05/13 10:43:14;;;;;;;;;;;;;;;26.74;19.03;101577.53;4969918;28;19926;-88
2023/05/13 10:45:44;;;;;;;;;;;;;;;26.27;19.52;101576.78;4976337;28;19922;-87
2023/05/13 10:48:12;;;;;;;;;;;;;;;27.13;19.33;101569.38;4967551;28;19918;-87
2023/05/13 10:51:08;;;;;;;;;;;;;;;27.88;17.90;101575.56;4973660;28;20311;-86
2023/05/13 10:53:43;;;;;;;;;;;;;;;26.96;18.62;101574.06;4969785;28;19933;-85
2023/05/13 10:56:11;;;;;;;;;;;;;;;26.48;19.33;101578.91;4972963;28;19923;-86
2023/05/13 10:58:38;;;;;;;;;;;;;;;26.90;19.07;101569.50;4974351;28;19922;-86
2023/05/13 11:01:14;;;;;;;;;;;;;;;26.70;19.53;101561.72;4971979;28;19997;-86
2023/05/13 11:03:39;;;;;;;;;;;;;;;26.19;19.87;101567.00;4961692;28;19918;-88
2023/05/13 11:06:18;;;;;;;;;;;;;;;26.13;20.74;101561.63;4970464;28;19922;-87
2023/05/13 11:08:53;;;;;;;;;;;;;;;25.53;20.82;101571.00;4958932;28;19926;-87
2023/05/13 11:11:21;;;;;;;;;;;;;;;24.98;20.79;101577.56;4971353;28;19953;-87
2023/05/13 11:13:50;;;;;;;;;;;;;;;24.52;21.72;101576.31;4970111;28;20330;-87
2023/05/13 11:16:17;;;;;;;;;;;;;;;24.37;22.43;101573.94;4969974;28;19926;-86
2023/05/13 11:18:44;;;;;;;;;;;;;;;24.32;22.75;101580.13;4951007;28;20363;-85
2023/05/13 11:21:11;;;;;;;;;;;;;;;23.58;22.94;101579.22;4968596;28;20255;-87
2023/05/13 11:23:49;;;;;;;;;;;;;;;23.06;23.91;101581.28;4969823;28;19961;-87
2023/05/13 11:26:20;;;;;;;;;;;;;;;23.60;22.51;101590.81;4966562;28;19933;-86
2023/05/13 11:29:00;;;;;;;;;;;;;;;23.72;22.44;101580.75;4968532;28;19926;-87
2023/05/13 11:31:26;;;;;;;;;;;;;;;23.89;22.09;101571.97;4969094;28;19922;-88
2023/05/13 11:34:08;;;;;;;;;;;;;;;24.09;22.51;101578.09;4962568;28;19926;-86
2023/05/13 11:36:34;;;;;;;;;;;;;;;24.18;23.05;101584.09;4947720;29;20017;-87
2023/05/13 11:39:12;;;;;;;;;;;;;;;23.93;23.30;101574.03;4953196;28;20009;-89
2023/05/13 11:41:42;;;;;;;;;;;;;;;23.02;25.12;101569.09;4942549;29;19966;-87
2023/05/13 11:44:07;;;;;;;;;;;;;;;23.04;25.04;101575.19;4949136;28;20069;-86
2023/05/13 11:46:32;;;;;;;;;;;;;;;22.75;23.68;101561.84;4953957;29;19975;-86
2023/05/13 11:48:58;;;;;;;;;;;;;;;22.87;24.02;101559.22;4951169;28;20017;-87
2023/05/13 11:51:25;;;;;;;;;;;;;;;22.55;24.87;101561.97;4940983;28;19938;-87
2023/05/13 11:53:52;;;;;;;;;;;;;;;21.54;28.43;101562.47;4941453;29;19946;-85
2023/05/13 11:56:18;;;;;;;;;;;;;;;22.02;28.37;101564.88;4951575;29;19918;-86
2023/05/13 11:58:44;;;;;;;;;;;;;;;22.18;27.56;101570.94;4965162;28;19932;-87
2023/05/13 12:01:29;;;;;;;;;;;;;;;21.93;27.65;101577.13;4952087;29;20045;-86
2023/05/13 12:04:00;;;;;;;;;;;;;;;22.40;27.40;101591.53;4951473;29;19937;-85
2023/05/13 12:06:25;;;;;;;;;;;;;;;22.61;26.84;101587.66;4950673;28;20248;-87
2023/05/13 12:08:50;;;;;;;;;;;;;;;22.93;26.52;101590.44;4948604;29;19922;-87
2023/05/13 12:11:18;;;;;;;;;;;;;;;22.33;27.32;101585.25;4938333;29;19962;-87
2023/05/13 12:13:45;;;;;;;;;;;;;;;22.39;27.82;101595.34;4960810;28;20005;-87
2023/05/13 12:16:11;;;;;;;;;;;;;;;22.15;27.52;101599.63;4954040;28;19948;-87
2023/05/13 12:18:36;;;;;;;;;;;;;;;22.56;27.52;101595.69;4963233;28;20323;-88
2023/05/13 12:21:12;;;;;;;;;;;;;;;22.44;27.64;101598.25;4964336;28;19941;-88
2023/05/13 12:23:39;;;;;;;;;;;;;;;22.04;27.85;101600.28;4963850;28;19943;-87
2023/05/13 12:26:06;;;;;;;;;;;;;;;22.14;27.80;101596.00;4953807;28;19918;-87
2023/05/13 12:28:31;;;;;;;;;;;;;;;21.93;28.08;101597.13;4950757;28;19926;-87
2023/05/13 12:30:57;;;;;;;;;;;;;;;21.89;28.98;101595.00;4952623;29;19945;-87
2023/05/13 12:33:24;;;;;;;;;;;;;;;21.89;29.35;101590.41;4961865;28;19922;-85
2023/05/13 12:35:50;;;;;;;;;;;;;;;21.85;29.65;101580.09;4972934;28;20335;-85
2023/05/13 12:38:19;;;;;;;;;;;;;;;21.71;29.74;101588.31;4972243;28;20328;-86
2023/05/13 12:40:45;;;;;;;;;;;;;;;21.50;29.17;101583.06;4947634;28;19926;-86
2023/05/13 12:43:12;;;;;;;;;;;;;;;21.61;30.84;101581.56;4974264;28;20338;-87
2023/05/13 12:45:39;;;;;;;;;;;;;;;21.50;30.96;101585.81;4972137;28;19992;-85
2023/05/13 12:48:04;;;;;;;;;;;;;;;21.11;30.73;101584.69;4966150;28;19944;-87
2023/05/13 12:50:30;;;;;;;;;;;;;;;20.96;29.15;101600.47;4971673;28;19922;-87
2023/05/13 12:52:56;;;;;;;;;;;;;;;20.67;30.31;101594.25;4954636;28;19930;-86
2023/05/13 12:55:21;;;;;;;;;;;;;;;20.57;31.26;101602.00;4949200;28;20347;-87
2023/05/13 12:57:54;;;;;;;;;;;;;;;20.41;33.39;101600.44;4971705;28;19922;-87
2023/05/13 13:00:19;;;;;;;;;;;;;;;20.08;34.76;101592.09;4968453;28;20005;-87
2023/05/13 13:02:45;;;;;;;;;;;;;;;20.30;35.33;101584.63;4964982;28;19972;-89
2023/05/13 13:05:12;;;;;;;;;;;;;;;20.32;35.98;101588.88;4978908;28;19918;-89
2023/05/13 13:07:41;;;;;;;;;;;;;;;19.95;36.75;101579.22;4979324;28;19923;-88